Live aus Altenrhein
LIVE
LSZR 172050Z AUTO 13003KT 090V170 9999 BKN023 BKN028 M05/M09 Q1028

People´s Info Center:

Öffnungszeiten Mo-Fr, 8-18 Uhr

 

info@peoples.ch

 
Aus Österreich:

T: +43 (0)5572 203 610

 

Aus CH / LI / DE:

T: +41 (0)71 858 51 60

 

Mit People´s nach Vorarlberg

Ein kleines Land mit großen Gefühlen.

Das kleinste und westlichste Bundesland Österreichs begeistert kulturell, wirtschaftlich und landschaftlich. Die Opernfestspiele auf dem See, die Architektur und so manches Unternehmen haben es zu internationaler Bekanntheit gebracht. Vor allem aber gibt es in Vorarlberg eine Vielzahl von Möglichkeiten, individuelle Glücksmomente zu erleben: zwischen dem Bodensee im Norden und der Bergwelt Arlberg, Silvretta und Rätikon im Süden.

 

Weitere Informationen für Ihren Aufenthalt in Vorarlberg finden Sie auf Vorarlberg Tourismus.